Terminal Aerodrome Forecast
Issued by NWS Melbourne, FL

Current Version | Previous Version | Text Only | Print | Product List | Glossary On
Versions: 1 2 3 4 5 6 7 8 9 10 11 12 13 14 15 16 17 18 19 20 21 22 23 24 25
000
FTUS42 KMLB 311700
TAFMCO
TAF
KMCO 311736Z 3118/0118 29011KT P6SM FEW040
     FM010000 29008KT P6SM FEW030
     FM011000 29013G20KT P6SM SKC
     FM011400 30017G26KT P6SM SKC=

USA.gov is the U.S. government's official web portal to all federal, state and local government web resources and services.